Time;durP1;ratioP1;P1;durP2;ratioP2;P2;SDS_P1;SDS_P2;PMS_P1;PMS_P2;Temp;Humidity;BMP_temperature;BMP_pressure;BME280_temperature;BME280_humidity;BME280_pressure;Samples;Min_cycle;Max_cycle;Signal;HPM_P1;HPM_P2
2023/07/06 00:02:19;;;;;;;9.20;2.20;;;;;;;16.83;63.57;100765.02;105292;1288;77773;-86
2023/07/06 00:05:06;;;;;;;;;;;;;;;16.78;63.64;100768.20;105363;1288;67364;-86
2023/07/06 00:07:53;;;;;;;3.30;2.30;;;;;;;16.66;63.55;100769.88;105317;1288;72580;-86
2023/07/06 00:10:47;;;;;;;3.90;2.70;;;;;;;16.51;63.69;100769.73;105254;1288;61247;-86
2023/07/06 00:13:33;;;;;;;4.60;1.90;;;;;;;16.48;63.79;100765.17;105667;1287;61065;-85
2023/07/06 00:16:21;;;;;;;3.40;2.70;;;;;;;16.47;63.82;100765.36;105331;1287;73362;-86
2023/07/06 00:19:08;;;;;;;6.40;2.80;;;;;;;16.45;63.79;100764.23;105283;1288;70024;-86
2023/07/06 00:21:57;;;;;;;4.60;2.00;;;;;;;16.35;63.82;100770.89;105266;1287;70676;-86
2023/07/06 00:24:46;;;;;;;4.00;1.80;;;;;;;16.31;63.79;100772.23;105369;1289;61444;-86
2023/07/06 00:27:33;;;;;;;10.10;2.10;;;;;;;16.27;63.85;100775.35;105191;1287;61265;-86
2023/07/06 00:30:30;;;;;;;2.80;2.00;;;;;;;16.24;63.88;100772.31;105142;1287;73612;-86
2023/07/06 00:33:18;;;;;;;6.20;2.80;;;;;;;16.19;63.89;100777.38;105219;1288;67575;-86
2023/07/06 00:36:04;;;;;;;6.50;2.60;;;;;;;16.12;63.87;100772.80;105344;1288;71630;-86
2023/07/06 00:38:52;;;;;;;4.20;2.20;;;;;;;16.02;63.96;100778.56;105277;1288;59456;-86
2023/07/06 00:41:39;;;;;;;2.50;2.30;;;;;;;15.97;64.05;100781.52;105400;1287;61095;-86
2023/07/06 00:44:50;;;;;;;3.20;2.60;;;;;;;15.93;64.04;100781.29;105293;1287;73412;-86
2023/07/06 00:47:51;;;;;;;2.80;2.50;;;;;;;15.88;63.95;100784.77;105292;1287;67226;-86
2023/07/06 00:50:37;;;;;;;4.80;2.40;;;;;;;15.83;64.00;100781.46;105379;1287;76036;-86
2023/07/06 00:53:32;;;;;;;3.90;2.70;;;;;;;15.79;63.99;100789.94;105294;1288;61158;-86
2023/07/06 00:56:25;;;;;;;9.40;2.90;;;;;;;15.73;64.02;100791.19;105362;1287;61219;-86
2023/07/06 00:59:19;;;;;;;8.20;2.80;;;;;;;15.71;64.06;100791.99;105401;1288;74615;-86
2023/07/06 01:02:08;;;;;;;9.60;2.60;;;;;;;15.68;64.02;100792.45;105338;1288;68102;-86
2023/07/06 01:04:55;;;;;;;9.40;2.50;;;;;;;15.62;64.02;100789.16;105375;1287;72428;-86
2023/07/06 01:07:44;;;;;;;7.40;2.30;;;;;;;15.54;63.98;100794.82;105265;1287;58657;-86
2023/07/06 01:10:34;;;;;;;3.80;2.00;;;;;;;15.50;64.12;100797.55;105285;1288;61197;-86
2023/07/06 01:13:23;;;;;;;3.10;1.90;;;;;;;15.48;64.03;100799.71;105366;1288;72365;-86
2023/07/06 01:16:36;;;;;;;3.00;2.10;;;;;;;15.44;63.94;100804.02;105300;1288;67909;-86
2023/07/06 01:20:10;;;;;;;2.10;1.90;;;;;;;15.36;63.98;100807.39;105310;1287;71446;-86
2023/07/06 01:23:53;;;;;;;5.10;2.30;;;;;;;15.28;64.04;100811.83;104568;1296;58747;-86
2023/07/06 01:27:10;;;;;;;2.70;1.70;;;;;;;15.25;64.09;100811.39;104180;1301;59247;-85
2023/07/06 01:29:57;;;;;;;4.10;2.80;;;;;;;15.17;64.29;100803.98;104303;1302;73878;-85
2023/07/06 01:32:49;;;;;;;3.30;3.00;;;;;;;15.16;64.24;100805.09;104179;1303;68539;-85
2023/07/06 01:35:47;;;;;;;6.50;2.20;;;;;;;15.16;64.28;100806.80;104202;1305;74108;-86
2023/07/06 01:38:36;;;;;;;3.40;2.70;;;;;;;15.16;64.24;100808.70;104114;1302;62120;-86
2023/07/06 01:41:26;;;;;;;4.00;2.30;;;;;;;15.11;64.21;100808.20;104188;1301;59310;-86
2023/07/06 01:44:16;;;;;;;4.30;1.70;;;;;;;15.01;64.21;100812.35;104151;1303;73294;-85
2023/07/06 01:47:03;;;;;;;7.30;1.80;;;;;;;14.98;64.28;100814.90;104098;1305;67364;-86
2023/07/06 01:50:14;;;;;;;2.10;1.90;;;;;;;14.90;64.08;100816.15;104095;1305;73977;-86
2023/07/06 01:53:25;;;;;;;2.90;1.60;;;;;;;14.83;64.26;100818.61;104246;1302;61169;-86
2023/07/06 01:56:20;;;;;;;6.70;2.00;;;;;;;14.78;64.31;100813.92;104182;1302;61368;-86
2023/07/06 01:59:12;;;;;;;3.50;2.80;;;;;;;14.76;64.33;100817.79;104652;1293;73849;-86
2023/07/06 02:02:07;;;;;;;3.00;2.20;;;;;;;14.77;64.35;100818.47;105305;1288;67379;-86
2023/07/06 02:04:57;;;;;;;3.30;1.70;;;;;;;14.77;64.27;100820.73;105460;1288;72627;-86
2023/07/06 02:07:44;;;;;;;3.00;1.50;;;;;;;14.74;64.26;100825.66;105478;1287;61176;-85
2023/07/06 02:10:30;;;;;;;;;;;;;;;14.68;64.20;100825.66;105277;1289;61164;-86
2023/07/06 02:13:17;;;;;;;1.20;1.00;;;;;;;14.66;64.32;100832.86;105291;1288;74864;-86
2023/07/06 02:16:05;;;;;;;4.10;2.00;;;;;;;14.59;64.28;100827.15;105290;1288;68631;-86
2023/07/06 02:18:53;;;;;;;1.70;1.50;;;;;;;14.55;64.33;100832.33;105281;1287;71465;-85
2023/07/06 02:21:40;;;;;;;1.80;1.40;;;;;;;14.52;64.35;100830.68;105287;1288;59324;-85
2023/07/06 02:24:27;;;;;;;2.30;1.90;;;;;;;14.46;64.40;100831.71;105221;1286;61095;-86
2023/07/06 02:27:14;;;;;;;2.50;1.90;;;;;;;14.41;64.47;100834.61;105227;1288;73236;-86
2023/07/06 02:30:00;;;;;;;;;;;;;;;14.35;64.43;100836.35;105406;1288;67394;-86
2023/07/06 02:32:55;;;;;;;7.10;1.50;;;;;;;14.25;64.45;100840.96;105423;1288;71068;-86
2023/07/06 02:35:42;;;;;;;2.80;1.70;;;;;;;14.19;64.53;100848.90;105503;1288;61801;-86
2023/07/06 02:38:34;;;;;;;5.70;1.70;;;;;;;14.20;64.54;100848.87;105210;1288;61041;-86
2023/07/06 02:41:20;;;;;;;8.40;2.40;;;;;;;14.22;64.56;100851.09;105415;1287;74953;-86
2023/07/06 02:44:06;;;;;;;;;;;;;;;14.20;64.45;100854.25;105312;1287;67287;-86
2023/07/06 02:47:01;;;;;;;3.30;2.10;;;;;;;14.13;64.49;100852.55;105310;1287;71265;-86
2023/07/06 02:49:47;;;;;;;3.60;1.70;;;;;;;14.06;64.60;100858.80;105409;1287;59943;-86
2023/07/06 02:52:34;;;;;;;;;;;;;;;13.99;64.51;100863.02;105305;1288;61062;-85
2023/07/06 02:55:28;;;;;;;2.50;2.20;;;;;;;13.91;64.57;100866.66;105564;1288;74363;-85
2023/07/06 02:58:16;;;;;;;3.30;2.80;;;;;;;13.89;64.74;100865.50;105515;1288;69924;-86
2023/07/06 03:01:04;;;;;;;6.30;2.60;;;;;;;13.93;64.74;100874.25;105314;1287;72017;-86
2023/07/06 03:03:51;;;;;;;4.60;2.50;;;;;;;13.93;64.66;100876.33;105397;1288;61122;-86
2023/07/06 03:06:40;;;;;;;5.40;2.70;;;;;;;13.92;64.59;100871.85;105208;1288;61374;-85
2023/07/06 03:09:27;;;;;;;2.60;2.00;;;;;;;13.92;64.63;100872.17;105170;1288;73832;-86
2023/07/06 03:12:36;;;;;;;5.20;2.90;;;;;;;13.92;64.68;100871.84;105266;1288;68096;-86
2023/07/06 03:15:41;;;;;;;3.10;2.20;;;;;;;13.92;64.67;100878.25;105201;1287;71382;-86
2023/07/06 03:18:44;;;;;;;3.10;2.30;;;;;;;13.92;64.70;100880.00;105307;1287;58720;-87
2023/07/06 03:22:31;;;;;;;4.20;1.80;;;;;;;13.89;64.61;100877.45;105352;1288;61768;-87
2023/07/06 03:26:06;;;;;;;5.00;2.10;;;;;;;13.89;64.63;100883.00;105396;1288;73117;-86
2023/07/06 03:29:12;;;;;;;3.00;1.70;;;;;;;13.92;64.65;100892.47;105311;1288;70865;-87
2023/07/06 03:32:03;;;;;;;5.40;2.60;;;;;;;13.93;64.64;100897.81;105363;1288;71158;-86
2023/07/06 03:34:59;;;;;;;3.20;2.00;;;;;;;13.93;64.62;100900.25;105385;1288;61971;-87
2023/07/06 03:37:48;;;;;;;6.50;2.70;;;;;;;13.90;64.56;100904.98;105391;1288;61108;-86
2023/07/06 03:41:04;;;;;;;4.50;2.30;;;;;;;13.82;64.78;100907.27;105420;1289;73425;-86
2023/07/06 03:43:56;;;;;;;4.10;2.40;;;;;;;13.81;64.87;100910.23;105390;1288;68466;-86
2023/07/06 03:46:43;;;;;;;3.30;2.50;;;;;;;13.82;64.97;100916.61;105235;1287;71253;-86
2023/07/06 03:49:34;;;;;;;6.10;2.40;;;;;;;13.87;64.98;100918.76;105288;1288;61302;-86
2023/07/06 03:52:41;;;;;;;6.50;2.40;;;;;;;13.90;64.99;100917.13;105245;1288;59330;-86
2023/07/06 03:56:10;;;;;;;2.80;2.50;;;;;;;13.94;65.04;100916.86;105140;1289;74113;-86
2023/07/06 03:59:40;;;;;;;5.90;2.40;;;;;;;14.02;65.07;100922.73;105434;1287;68586;-86
2023/07/06 04:03:09;;;;;;;11.90;4.50;;;;;;;14.05;65.09;100925.90;105359;1287;72881;-89
2023/07/06 04:06:56;;;;;;;4.30;2.30;;;;;;;14.13;65.16;100925.36;105423;1288;61282;-89
2023/07/06 04:10:42;;;;;;;3.60;2.90;;;;;;;14.21;65.19;100927.40;105412;1287;61219;-87
2023/07/06 04:14:29;;;;;;;3.60;2.50;;;;;;;14.40;65.35;100930.05;105465;1288;73451;-89
2023/07/06 04:18:15;;;;;;;3.00;2.20;;;;;;;14.63;65.31;100931.67;105442;1287;67474;-88
2023/07/06 04:22:02;;;;;;;2.60;2.40;;;;;;;14.73;65.29;100933.83;105437;1287;71705;-88
2023/07/06 04:25:49;;;;;;;3.30;2.40;;;;;;;14.71;65.29;100932.30;105270;1292;62308;-88
2023/07/06 04:29:35;;;;;;;3.90;2.50;;;;;;;14.74;65.60;100930.85;105234;1291;61659;-88
2023/07/06 04:33:22;;;;;;;4.60;2.20;;;;;;;14.90;65.57;100935.77;105292;1292;74416;-88
2023/07/06 04:37:09;;;;;;;7.20;2.70;;;;;;;15.04;65.64;100935.55;105272;1292;68526;-88
2023/07/06 04:40:55;;;;;;;5.00;2.70;;;;;;;15.07;65.56;100934.73;105297;1289;75358;-89
2023/07/06 04:44:41;;;;;;;5.70;2.50;;;;;;;15.12;65.71;100933.55;105267;1291;61293;-88
2023/07/06 04:48:27;;;;;;;8.30;3.20;;;;;;;15.17;65.68;100938.23;105320;1291;61112;-88
2023/07/06 04:52:14;;;;;;;7.20;3.20;;;;;;;15.31;65.87;100937.83;105295;1291;78292;-87
2023/07/06 04:56:00;;;;;;;9.80;3.20;;;;;;;15.50;65.81;100948.01;105344;1288;68443;-88
2023/07/06 04:59:46;;;;;;;9.40;3.10;;;;;;;15.67;65.94;100951.66;105461;1288;72527;-87
2023/07/06 05:03:33;;;;;;;6.00;3.10;;;;;;;15.86;65.94;100949.64;105410;1288;59916;-88
2023/07/06 05:07:20;;;;;;;5.10;3.20;;;;;;;16.18;65.90;100946.32;105491;1287;59225;-88
2023/07/06 05:11:10;;;;;;;8.70;2.90;;;;;;;16.71;65.94;100942.70;105451;1288;73375;-88
2023/07/06 05:14:56;;;;;;;3.20;2.50;;;;;;;17.62;65.68;100949.69;105461;1288;67321;-89
2023/07/06 05:18:43;;;;;;;4.20;2.90;;;;;;;18.61;65.04;100949.19;105455;1288;71369;-88
2023/07/06 05:22:29;;;;;;;6.00;3.10;;;;;;;19.49;64.74;100951.22;105433;1286;60899;-87
2023/07/06 05:26:13;;;;;;;4.60;2.70;;;;;;;20.34;64.41;100955.23;105589;1288;61176;-89
2023/07/06 05:29:57;;;;;;;3.90;2.60;;;;;;;21.22;64.02;100953.05;105620;1289;74395;-88
2023/07/06 05:33:25;;;;;;;2.30;1.70;;;;;;;22.04;63.46;100951.16;105681;1287;67929;-87
2023/07/06 05:37:09;;;;;;;8.60;2.10;;;;;;;22.84;63.19;100953.52;105601;1288;72082;-88
2023/07/06 05:40:54;;;;;;;4.30;2.50;;;;;;;23.62;62.66;100959.69;105611;1288;59741;-89
2023/07/06 05:44:39;;;;;;;3.20;2.10;;;;;;;24.15;62.23;100968.30;105653;1288;61335;-85
2023/07/06 05:48:22;;;;;;;4.10;2.10;;;;;;;24.30;61.73;100973.83;105589;1288;74461;-86
2023/07/06 05:51:33;;;;;;;3.10;1.60;;;;;;;24.43;61.45;100974.73;105644;1291;67446;-85
2023/07/06 05:54:20;;;;;;;4.00;2.00;;;;;;;24.39;61.13;100973.59;105496;1288;72356;-85
2023/07/06 05:57:45;;;;;;;2.20;2.00;;;;;;;24.58;60.95;100979.13;104837;1288;61181;-85
2023/07/06 06:00:41;;;;;;;6.60;2.10;;;;;;;24.97;60.70;100984.84;104766;1288;61152;-85
2023/07/06 06:03:35;;;;;;;;;;;;;;;25.02;60.09;100992.07;105659;1287;74097;-85
2023/07/06 06:06:39;;;;;;;;;;;;;;;25.12;60.02;100997.36;105549;1288;67405;-86
2023/07/06 06:10:23;;;;;;;3.00;2.00;;;;;;;25.58;59.59;101005.21;105535;1288;72397;-85
2023/07/06 06:14:07;;;;;;;2.70;1.60;;;;;;;25.80;58.96;101010.83;105573;1288;59237;-87
2023/07/06 06:17:55;;;;;;;4.70;1.90;;;;;;;25.95;58.58;101013.59;105514;1288;61382;-86
2023/07/06 06:21:20;;;;;;;2.30;1.60;;;;;;;26.32;58.24;101014.00;105462;1288;76112;-86
2023/07/06 06:24:44;;;;;;;5.00;1.80;;;;;;;26.68;57.55;101014.44;105329;1288;67376;-86
2023/07/06 06:28:27;;;;;;;1.90;1.80;;;;;;;27.12;56.99;101021.58;105425;1288;72375;-86
2023/07/06 06:31:52;;;;;;;4.40;1.80;;;;;;;27.56;56.38;101015.95;105365;1288;60070;-86
2023/07/06 06:35:16;;;;;;;4.10;1.70;;;;;;;27.94;55.68;101023.27;105364;1289;61172;-86
2023/07/06 06:39:00;;;;;;;1.90;1.80;;;;;;;28.62;55.18;101025.00;105611;1291;74149;-86
2023/07/06 06:42:44;;;;;;;2.60;1.80;;;;;;;29.59;54.43;101032.07;105430;1288;68905;-86
2023/07/06 06:46:28;;;;;;;4.10;1.60;;;;;;;30.08;53.78;101032.32;105436;1288;71929;-86
2023/07/06 06:50:16;;;;;;;6.20;1.80;;;;;;;30.76;53.22;101030.89;105457;1291;60493;-86
2023/07/06 06:53:59;;;;;;;3.40;1.90;;;;;;;31.60;52.54;101031.34;105184;1288;61286;-86
2023/07/06 06:57:08;;;;;;;6.50;1.90;;;;;;;31.61;51.88;101030.38;105188;1287;73657;-88
2023/07/06 07:00:16;;;;;;;2.30;1.50;;;;;;;31.70;51.89;101028.42;105441;1291;67521;-86
2023/07/06 07:03:45;;;;;;;3.90;1.70;;;;;;;31.74;51.34;101030.86;101932;1288;5189131;-87
2023/07/06 07:07:26;;;;;;;2.10;1.90;;;;;;;32.18;50.26;101031.55;105458;1288;59548;-85
2023/07/06 07:10:53;;;;;;;4.00;1.80;;;;;;;32.83;49.06;101032.13;106161;1290;59406;-89
2023/07/06 07:14:08;;;;;;;2.10;1.80;;;;;;;33.79;48.30;101034.98;105463;1288;73309;-87
2023/07/06 07:16:56;;;;;;;4.00;2.00;;;;;;;34.32;47.11;101032.95;106257;1288;67227;-88
2023/07/06 07:19:44;;;;;;;1.70;1.60;;;;;;;34.74;46.60;101025.02;105228;1288;75895;-87
2023/07/06 07:22:51;;;;;;;3.80;1.80;;;;;;;35.48;45.95;101023.50;105791;1287;61702;-87
2023/07/06 07:25:41;;;;;;;7.10;2.00;;;;;;;35.84;45.16;101024.25;105371;1291;59989;-87
2023/07/06 07:28:28;;;;;;;3.00;1.90;;;;;;;35.10;44.27;101024.21;105458;1288;74170;-87
2023/07/06 07:31:26;;;;;;;3.50;2.00;;;;;;;33.93;44.44;101031.66;105313;1288;67458;-88
2023/07/06 07:34:21;;;;;;;2.70;2.00;;;;;;;33.42;44.48;101026.08;105204;1288;72384;-87
2023/07/06 07:37:10;;;;;;;11.70;2.10;;;;;;;33.35;44.01;101026.48;105386;1288;61642;-87
2023/07/06 07:40:00;;;;;;;7.50;5.10;;;;;;;33.48;42.90;101031.12;105520;1289;59175;-87
2023/07/06 07:43:08;;;;;;;4.60;2.70;;;;;;;32.90;42.46;101032.47;105299;1288;74020;-87
2023/07/06 07:46:18;;;;;;;2.80;2.20;;;;;;;32.32;42.07;101032.52;105367;1288;67239;-86
2023/07/06 07:49:07;;;;;;;2.30;1.80;;;;;;;32.31;41.57;101033.13;105278;1288;71364;-86
2023/07/06 07:52:14;;;;;;;3.50;2.10;;;;;;;33.62;40.71;101030.70;105292;1286;59724;-87
2023/07/06 07:55:17;;;;;;;1.90;1.70;;;;;;;35.24;39.78;101033.45;105347;1288;61246;-87
2023/07/06 07:58:47;;;;;;;4.30;2.40;;;;;;;36.96;38.75;101034.27;105415;1288;75035;-88
2023/07/06 08:02:30;;;;;;;2.10;1.90;;;;;;;38.56;38.56;101040.79;105457;1288;67436;-89
2023/07/06 08:06:16;;;;;;;4.90;1.90;;;;;;;40.01;37.71;101037.20;105360;1288;72474;-89
2023/07/06 08:09:46;;;;;;;2.50;2.30;;;;;;;41.03;36.85;101039.36;105426;1288;59291;-89
2023/07/06 08:13:29;;;;;;;3.90;2.90;;;;;;;41.88;36.58;101043.36;105372;1288;59215;-90
2023/07/06 08:17:15;;;;;;;3.20;2.60;;;;;;;43.17;36.34;101047.63;105439;1289;73139;-90
2023/07/06 08:21:01;;;;;;;2.30;2.10;;;;;;;44.07;34.99;101038.30;105423;1287;68110;-90
2023/07/06 08:24:29;;;;;;;3.70;3.10;;;;;;;45.00;34.10;101037.44;105402;1288;71256;-89
2023/07/06 08:27:57;;;;;;;3.50;3.20;;;;;;;45.66;33.46;101040.08;105415;1288;59282;-91
2023/07/06 08:31:24;;;;;;;5.00;3.10;;;;;;;46.45;32.40;101040.17;105431;1291;61160;-90
2023/07/06 08:34:50;;;;;;;4.50;3.60;;;;;;;46.77;31.19;101037.98;105438;1289;64771;-90
2023/07/06 08:37:36;;;;;;;5.80;3.80;;;;;;;47.20;30.35;101038.64;105471;1288;61205;-89
2023/07/06 08:40:48;;;;;;;4.00;3.70;;;;;;;48.00;29.07;101038.79;105312;1288;76289;-89
2023/07/06 08:44:14;;;;;;;4.80;4.10;;;;;;;48.37;28.21;101040.91;105278;1288;61166;-89
2023/07/06 08:47:41;;;;;;;6.80;4.10;;;;;;;48.16;27.41;101043.03;105429;1289;61174;-90
2023/07/06 08:51:34;;;;;;;5.10;4.70;;;;;;;47.91;26.51;101043.03;105403;1288;64588;-90
2023/07/06 08:54:55;;;;;;;4.60;4.30;;;;;;;47.76;25.34;101042.04;105476;1289;59996;-90
2023/07/06 08:58:41;;;;;;;5.40;4.80;;;;;;;47.51;24.63;101046.33;106397;1288;63972;-90
2023/07/06 09:01:58;;;;;;;4.10;3.90;;;;;;;47.42;24.13;101049.98;105337;1289;292218;-89
2023/07/06 09:05:22;;;;;;;4.60;3.60;;;;;;;45.98;23.28;101046.67;105740;1288;61075;-89
2023/07/06 09:08:32;;;;;;;3.40;3.10;;;;;;;42.30;23.10;101043.36;105387;1289;74983;-89
2023/07/06 09:12:15;;;;;;;2.70;2.50;;;;;;;39.44;22.93;101041.91;105477;1287;68471;-89
2023/07/06 09:16:04;;;;;;;2.20;2.00;;;;;;;37.10;22.94;101041.08;105415;1291;72015;-89
2023/07/06 09:19:53;;;;;;;2.60;1.80;;;;;;;35.02;22.81;101044.00;105430;1291;61174;-88
2023/07/06 09:23:39;;;;;;;5.30;2.70;;;;;;;33.38;22.91;101032.69;105409;1289;61147;-88
2023/07/06 09:27:29;;;;;;;5.10;2.10;;;;;;;32.07;22.79;101034.46;105417;1288;76025;-88
2023/07/06 09:31:27;;;;;;;2.60;2.20;;;;;;;30.72;23.28;101032.64;105378;1291;67668;-89
2023/07/06 09:35:15;;;;;;;4.90;2.00;;;;;;;29.85;23.41;101034.31;101533;1287;5158337;-90
2023/07/06 09:39:01;;;;;;;5.70;1.80;;;;;;;29.12;23.58;101028.85;105347;1292;61214;-90
2023/07/06 09:42:50;;;;;;;3.90;1.80;;;;;;;28.52;24.14;101032.92;105331;1289;73638;-90
2023/07/06 09:46:37;;;;;;;1.90;1.50;;;;;;;28.04;24.53;101034.64;105337;1289;69925;-90
2023/07/06 09:50:07;;;;;;;3.90;2.00;;;;;;;27.62;24.50;101039.41;105417;1292;73375;-89
2023/07/06 09:52:58;;;;;;;2.30;1.60;;;;;;;27.22;24.91;101041.66;105284;1294;61132;-88
2023/07/06 09:56:29;;;;;;;3.10;1.90;;;;;;;26.90;25.22;101041.71;105313;1292;61170;-88
2023/07/06 10:00:11;;;;;;;2.80;1.70;;;;;;;26.62;25.40;101041.03;105344;1289;73988;-87
2023/07/06 10:03:55;;;;;;;3.10;1.90;;;;;;;26.42;26.03;101042.80;105402;1293;67340;-88
2023/07/06 10:07:48;;;;;;;2.80;1.60;;;;;;;26.24;26.21;101043.41;105391;1288;71258;-89
2023/07/06 10:11:12;;;;;;;3.30;2.00;;;;;;;26.14;26.61;101052.14;106209;1290;58826;-88
2023/07/06 10:15:14;;;;;;;1.90;1.60;;;;;;;26.15;26.82;101046.71;105572;1293;61120;-88
2023/07/06 10:18:49;;;;;;;3.60;2.00;;;;;;;26.16;27.15;101044.54;106078;1288;74515;-88
2023/07/06 10:22:12;;;;;;;3.80;1.70;;;;;;;26.06;27.40;101041.23;105251;1294;66281;-87
2023/07/06 10:25:09;;;;;;;3.20;1.70;;;;;;;25.91;27.54;101047.65;105251;1292;71246;-87
2023/07/06 10:28:51;;;;;;;3.10;1.70;;;;;;;25.84;27.84;101046.94;105174;1293;59283;-88
2023/07/06 10:32:21;;;;;;;2.30;2.10;;;;;;;25.76;28.15;101042.77;105933;1288;61039;-88
2023/07/06 10:35:37;;;;;;;3.20;1.90;;;;;;;25.62;28.24;101046.70;105261;1292;73263;-88
2023/07/06 10:38:35;;;;;;;3.30;2.30;;;;;;;25.45;28.56;101047.94;104887;1294;70139;-86
2023/07/06 10:42:01;;;;;;;2.90;1.80;;;;;;;25.33;28.91;101049.88;105019;1295;71515;-88
2023/07/06 10:45:16;;;;;;;2.10;1.70;;;;;;;25.31;29.16;101048.99;104889;1296;61454;-86
2023/07/06 10:48:13;;;;;;;2.90;1.90;;;;;;;25.27;29.12;101047.36;105801;1295;59135;-87
2023/07/06 10:51:15;;;;;;;2.40;1.90;;;;;;;25.24;29.42;101046.46;105773;1294;75524;-87
2023/07/06 10:54:45;;;;;;;2.90;1.90;;;;;;;25.28;29.58;101045.70;105289;1294;67760;-87
2023/07/06 10:57:36;;;;;;;3.60;2.20;;;;;;;25.20;29.92;101046.39;104969;1297;71923;-85
2023/07/06 11:00:33;;;;;;;11.90;1.90;;;;;;;25.21;30.06;101051.27;104896;1298;61347;-86
2023/07/06 11:03:23;;;;;;;2.60;2.00;;;;;;;25.20;30.12;101049.94;104822;1296;61912;-86
2023/07/06 11:06:35;;;;;;;3.20;2.10;;;;;;;25.20;30.29;101046.40;104900;1293;72579;-87
2023/07/06 11:09:23;;;;;;;2.00;1.60;;;;;;;25.15;30.45;101053.48;104142;1298;212145;-87
2023/07/06 11:12:21;;;;;;;1.60;1.50;;;;;;;25.07;30.75;101053.30;105528;1296;71449;-87
2023/07/06 11:15:16;;;;;;;2.40;1.30;;;;;;;24.98;30.79;101053.18;105060;1289;60055;-86
2023/07/06 11:18:44;;;;;;;2.80;1.80;;;;;;;24.95;31.00;101051.49;105280;1288;61217;-86
2023/07/06 11:21:33;;;;;;;2.50;1.80;;;;;;;24.90;31.15;101055.55;105905;1288;75373;-86
2023/07/06 11:24:29;;;;;;;5.90;2.00;;;;;;;24.96;31.29;101052.83;105308;1292;68567;-87
2023/07/06 11:27:24;;;;;;;5.20;2.10;;;;;;;25.05;31.45;101054.14;105223;1288;70955;-86
2023/07/06 11:30:39;;;;;;;2.80;2.10;;;;;;;25.08;31.48;101052.86;105254;1288;59313;-88
2023/07/06 11:34:01;;;;;;;3.70;2.00;;;;;;;25.12;31.66;101053.71;105345;1288;60491;-87
2023/07/06 11:37:07;;;;;;;2.90;1.80;;;;;;;25.09;31.87;101055.33;105353;1288;73750;-87
2023/07/06 11:40:28;;;;;;;1.80;1.70;;;;;;;24.99;31.83;101059.67;105381;1288;68322;-87
2023/07/06 11:43:53;;;;;;;6.10;1.90;;;;;;;24.95;31.91;101059.11;105392;1288;71323;-87
2023/07/06 11:46:42;;;;;;;;;;;;;;;24.88;32.31;101056.73;105416;1288;61164;-87
2023/07/06 11:49:56;;;;;;;4.10;1.80;;;;;;;24.86;32.31;101059.20;105447;1288;60723;-87
2023/07/06 11:53:42;;;;;;;3.00;2.30;;;;;;;24.82;32.55;101057.36;104684;1296;74459;-87
2023/07/06 11:57:24;;;;;;;1.90;1.70;;;;;;;24.77;32.52;101060.14;104574;1301;68482;-87
2023/07/06 12:03:48;;;;;;;2.30;1.90;;;;;;;24.69;32.91;101059.07;104469;1297;61132;-87
2023/07/06 12:06:54;;;;;;;2.00;1.60;;;;;;;24.75;32.97;101056.23;105261;1297;61328;-87
2023/07/06 12:10:45;;;;;;;5.20;1.90;;;;;;;24.82;32.97;101052.95;104590;1296;74303;-88
2023/07/06 12:14:14;;;;;;;4.20;2.00;;;;;;;24.89;33.36;101056.64;104678;1296;67415;-88
2023/07/06 12:17:06;;;;;;;4.70;2.40;;;;;;;24.96;33.19;101054.63;104690;1297;71404;-87
2023/07/06 12:20:10;;;;;;;2.10;1.70;;;;;;;24.95;33.34;101054.12;104634;1297;59754;-87
2023/07/06 12:23:36;;;;;;;2.90;1.90;;;;;;;25.00;33.44;101054.81;104617;1297;61219;-87
2023/07/06 12:27:11;;;;;;;1.90;1.80;;;;;;;24.96;33.57;101048.58;104616;1296;76119;-87
2023/07/06 12:30:06;;;;;;;9.10;1.80;;;;;;;24.97;33.86;101046.26;105013;1288;71255;-87
2023/07/06 12:33:23;;;;;;;2.60;1.90;;;;;;;24.95;33.92;101045.65;105013;1291;72297;-87
2023/07/06 12:36:40;;;;;;;4.80;2.20;;;;;;;25.04;34.17;101046.24;104961;1292;61413;-87
2023/07/06 12:39:51;;;;;;;2.70;1.90;;;;;;;25.15;34.12;101043.42;105109;1291;61245;-87
2023/07/06 12:43:03;;;;;;;2.60;1.80;;;;;;;25.26;34.29;101036.83;105163;1291;73338;-87
2023/07/06 12:45:52;;;;;;;4.50;2.00;;;;;;;25.32;34.52;101036.20;104997;1293;66444;-87
2023/07/06 12:49:06;;;;;;;2.70;1.70;;;;;;;25.35;34.29;101036.68;104931;1291;71308;-87
2023/07/06 12:52:32;;;;;;;6.10;2.40;;;;;;;25.33;34.27;101033.27;104899;1295;61486;-86
2023/07/06 12:55:24;;;;;;;3.20;1.60;;;;;;;25.28;34.18;101034.01;105434;1292;61183;-87
2023/07/06 12:58:57;;;;;;;3.00;1.90;;;;;;;25.26;34.34;101030.81;104988;1291;73145;-87
2023/07/06 13:02:33;;;;;;;2.80;1.70;;;;;;;25.28;34.37;101031.38;105726;1291;68625;-87
2023/07/06 13:06:11;;;;;;;3.30;1.60;;;;;;;25.33;34.42;101036.44;104361;1304;73016;-88
2023/07/06 13:09:37;;;;;;;2.90;2.10;;;;;;;25.32;34.45;101040.27;104362;1299;61205;-87
2023/07/06 13:13:26;;;;;;;4.20;1.70;;;;;;;25.23;34.50;101046.16;104671;1295;61592;-87
2023/07/06 13:17:22;;;;;;;6.20;1.90;;;;;;;25.16;34.43;101044.08;104630;1299;74031;-87
2023/07/06 13:20:53;;;;;;;4.60;3.00;;;;;;;25.10;34.46;101043.25;105190;1296;67431;-87
2023/07/06 13:24:04;;;;;;;2.80;2.30;;;;;;;25.05;34.49;101042.34;105573;1296;70146;-88
2023/07/06 13:27:33;;;;;;;3.90;2.20;;;;;;;25.01;34.71;101046.09;104566;1296;59293;-87
2023/07/06 13:30:46;;;;;;;2.60;1.80;;;;;;;24.98;34.70;101050.44;104826;1296;61819;-86
2023/07/06 13:34:02;;;;;;;3.40;1.80;;;;;;;24.93;34.69;101052.16;104496;1296;73978;-88
2023/07/06 13:37:31;;;;;;;2.30;2.10;;;;;;;24.82;34.58;101047.46;104587;1299;68944;-87
2023/07/06 13:41:17;;;;;;;2.70;1.70;;;;;;;24.67;35.03;101044.80;104631;1296;71439;-87
2023/07/06 13:44:45;;;;;;;2.90;1.80;;;;;;;24.68;35.26;101039.96;105280;1288;61081;-88
2023/07/06 13:48:30;;;;;;;3.30;2.00;;;;;;;24.69;35.06;101044.61;105309;1288;61222;-88
2023/07/06 13:52:17;;;;;;;5.20;2.00;;;;;;;24.73;35.21;101051.92;105251;1292;74499;-87
2023/07/06 13:55:30;;;;;;;4.60;2.10;;;;;;;24.81;35.37;101050.91;105608;1288;67442;-86
2023/07/06 13:58:32;;;;;;;5.80;2.00;;;;;;;24.82;35.23;101050.48;105347;1288;73759;-87
2023/07/06 14:02:02;;;;;;;3.80;1.80;;;;;;;24.79;35.40;101051.00;105210;1288;61379;-87
2023/07/06 14:05:44;;;;;;;4.40;2.00;;;;;;;24.67;35.49;101051.64;106022;1288;58775;-88
2023/07/06 14:08:32;;;;;;;8.40;1.80;;;;;;;24.64;35.45;101046.60;105386;1288;75601;-86
2023/07/06 14:11:19;;;;;;;2.60;2.00;;;;;;;24.69;35.66;101045.16;105248;1288;66428;-86
2023/07/06 14:14:05;;;;;;;2.60;2.30;;;;;;;24.77;35.52;101045.16;105131;1288;70979;-86
2023/07/06 14:16:52;;;;;;;4.00;1.90;;;;;;;24.86;35.61;101051.22;105154;1289;61198;-86
2023/07/06 14:19:39;;;;;;;3.90;1.70;;;;;;;24.97;35.76;101047.33;105070;1289;61287;-86
2023/07/06 14:22:26;;;;;;;5.90;2.20;;;;;;;25.04;35.62;101048.91;105051;1288;73230;-86
2023/07/06 14:25:42;;;;;;;2.60;2.10;;;;;;;25.07;35.61;101049.40;105144;1288;69190;-85
2023/07/06 14:28:33;;;;;;;3.70;2.00;;;;;;;25.07;35.74;101051.89;105157;1288;71585;-88
2023/07/06 14:31:21;;;;;;;9.60;4.20;;;;;;;25.10;35.92;101052.42;105145;1289;61219;-86
2023/07/06 14:34:09;;;;;;;5.10;3.00;;;;;;;25.11;35.84;101055.35;105099;1288;59354;-86
2023/07/06 14:37:37;;;;;;;3.20;2.10;;;;;;;25.11;35.77;101055.04;105021;1288;75981;-88
2023/07/06 14:41:23;;;;;;;3.90;2.00;;;;;;;25.10;35.61;101056.85;105274;1288;68593;-88
2023/07/06 14:44:49;;;;;;;3.10;1.80;;;;;;;25.03;35.66;101059.38;105150;1288;72694;-87
2023/07/06 14:48:35;;;;;;;2.30;2.00;;;;;;;25.01;35.68;101059.90;105303;1288;61292;-88
2023/07/06 14:52:21;;;;;;;4.10;2.00;;;;;;;25.03;35.65;101053.92;105464;1290;61163;-88
2023/07/06 14:56:08;;;;;;;2.60;1.50;;;;;;;25.05;35.75;101050.81;105196;1288;74209;-88
2023/07/06 14:59:35;;;;;;;3.00;1.70;;;;;;;25.09;35.81;101049.48;105272;1288;67895;-88
2023/07/06 15:03:21;;;;;;;3.50;1.70;;;;;;;25.12;35.84;101048.92;106077;1288;72510;-88
2023/07/06 15:07:09;;;;;;;2.90;1.90;;;;;;;25.09;35.68;101045.41;105912;1289;59319;-88